sensor_id;sensor_type;location;lat;lon;timestamp;P1;durP1;ratioP1;P2;durP2;ratioP2
50010;SDS011;35899;50.352;19.390;2022-09-27T00:01:46;71.00;;;13.38;;
50010;SDS011;35899;50.352;19.390;2022-09-27T00:04:13;70.30;;;13.93;;
50010;SDS011;35899;50.352;19.390;2022-09-27T00:06:40;69.58;;;13.95;;
50010;SDS011;35899;50.352;19.390;2022-09-27T00:09:08;49.75;;;13.03;;
50010;SDS011;35899;50.352;19.390;2022-09-27T00:11:36;66.00;;;13.83;;
50010;SDS011;35899;50.352;19.390;2022-09-27T00:14:07;68.42;;;13.98;;
50010;SDS011;35899;50.352;19.390;2022-09-27T00:16:38;65.75;;;14.05;;
50010;SDS011;35899;50.352;19.390;2022-09-27T00:21:42;46.83;;;13.55;;
50010;SDS011;35899;50.352;19.390;2022-09-27T00:24:11;42.78;;;14.13;;
50010;SDS011;35899;50.352;19.390;2022-09-27T00:26:40;42.43;;;13.70;;
50010;SDS011;35899;50.352;19.390;2022-09-27T00:29:07;37.88;;;13.85;;
50010;SDS011;35899;50.352;19.390;2022-09-27T00:31:36;44.27;;;14.18;;
50010;SDS011;35899;50.352;19.390;2022-09-27T00:34:04;52.23;;;14.07;;
50010;SDS011;35899;50.352;19.390;2022-09-27T00:36:33;49.95;;;14.38;;
50010;SDS011;35899;50.352;19.390;2022-09-27T00:39:00;67.30;;;14.25;;
50010;SDS011;35899;50.352;19.390;2022-09-27T00:41:28;61.63;;;14.28;;
50010;SDS011;35899;50.352;19.390;2022-09-27T00:44:03;58.95;;;14.45;;
50010;SDS011;35899;50.352;19.390;2022-09-27T00:52:20;103.87;;;15.55;;
50010;SDS011;35899;50.352;19.390;2022-09-27T00:55:27;76.37;;;15.03;;
50010;SDS011;35899;50.352;19.390;2022-09-27T00:57:58;112.37;;;15.78;;
50010;SDS011;35899;50.352;19.390;2022-09-27T01:00:25;95.85;;;16.05;;
50010;SDS011;35899;50.352;19.390;2022-09-27T01:02:53;101.15;;;16.00;;
50010;SDS011;35899;50.352;19.390;2022-09-27T01:05:22;104.15;;;15.85;;
50010;SDS011;35899;50.352;19.390;2022-09-27T01:07:52;138.45;;;15.80;;
50010;SDS011;35899;50.352;19.390;2022-09-27T01:10:24;113.32;;;14.53;;
50010;SDS011;35899;50.352;19.390;2022-09-27T01:13:04;116.55;;;15.38;;
50010;SDS011;35899;50.352;19.390;2022-09-27T01:27:41;71.05;;;12.58;;
50010;SDS011;35899;50.352;19.390;2022-09-27T01:30:12;56.68;;;13.55;;
50010;SDS011;35899;50.352;19.390;2022-09-27T01:36:06;94.03;;;13.22;;
50010;SDS011;35899;50.352;19.390;2022-09-27T01:41:30;70.32;;;11.73;;
50010;SDS011;35899;50.352;19.390;2022-09-27T01:44:30;74.55;;;11.75;;
50010;SDS011;35899;50.352;19.390;2022-09-27T01:55:21;90.12;;;13.62;;
50010;SDS011;35899;50.352;19.390;2022-09-27T01:58:02;71.75;;;12.47;;
50010;SDS011;35899;50.352;19.390;2022-09-27T02:00:36;66.33;;;13.15;;
50010;SDS011;35899;50.352;19.390;2022-09-27T02:09:47;77.62;;;12.93;;
50010;SDS011;35899;50.352;19.390;2022-09-27T02:12:21;48.52;;;12.18;;
50010;SDS011;35899;50.352;19.390;2022-09-27T02:14:56;80.57;;;12.68;;
50010;SDS011;35899;50.352;19.390;2022-09-27T02:17:39;77.60;;;12.80;;
50010;SDS011;35899;50.352;19.390;2022-09-27T02:23:06;73.92;;;12.47;;
50010;SDS011;35899;50.352;19.390;2022-09-27T02:28:37;101.05;;;11.63;;
50010;SDS011;35899;50.352;19.390;2022-09-27T02:31:14;79.32;;;11.55;;
50010;SDS011;35899;50.352;19.390;2022-09-27T02:33:47;89.55;;;11.33;;
50010;SDS011;35899;50.352;19.390;2022-09-27T02:36:17;52.60;;;11.40;;
50010;SDS011;35899;50.352;19.390;2022-09-27T02:38:46;79.60;;;12.05;;
50010;SDS011;35899;50.352;19.390;2022-09-27T03:04:22;88.22;;;11.10;;
50010;SDS011;35899;50.352;19.390;2022-09-27T03:09:46;30.40;;;8.93;;
50010;SDS011;35899;50.352;19.390;2022-09-27T03:12:17;57.90;;;9.60;;
50010;SDS011;35899;50.352;19.390;2022-09-27T03:14:47;42.20;;;9.68;;
50010;SDS011;35899;50.352;19.390;2022-09-27T03:17:22;47.75;;;9.65;;
50010;SDS011;35899;50.352;19.390;2022-09-27T03:19:56;50.03;;;10.15;;
50010;SDS011;35899;50.352;19.390;2022-09-27T03:22:24;38.42;;;9.65;;
50010;SDS011;35899;50.352;19.390;2022-09-27T03:24:51;43.13;;;10.10;;
50010;SDS011;35899;50.352;19.390;2022-09-27T03:27:19;27.60;;;9.30;;
50010;SDS011;35899;50.352;19.390;2022-09-27T03:29:46;46.45;;;10.03;;
50010;SDS011;35899;50.352;19.390;2022-09-27T03:32:13;61.00;;;9.85;;
50010;SDS011;35899;50.352;19.390;2022-09-27T03:35:00;49.27;;;9.98;;
50010;SDS011;35899;50.352;19.390;2022-09-27T03:37:27;47.93;;;10.08;;
50010;SDS011;35899;50.352;19.390;2022-09-27T03:39:55;24.02;;;9.80;;
50010;SDS011;35899;50.352;19.390;2022-09-27T03:42:22;13.08;;;9.60;;
50010;SDS011;35899;50.352;19.390;2022-09-27T03:44:50;16.27;;;9.70;;
50010;SDS011;35899;50.352;19.390;2022-09-27T03:47:17;14.03;;;9.45;;
50010;SDS011;35899;50.352;19.390;2022-09-27T03:49:44;11.12;;;8.70;;
50010;SDS011;35899;50.352;19.390;2022-09-27T03:52:12;14.47;;;8.85;;
50010;SDS011;35899;50.352;19.390;2022-09-27T03:54:40;21.97;;;9.75;;
50010;SDS011;35899;50.352;19.390;2022-09-27T03:57:07;19.48;;;10.28;;
50010;SDS011;35899;50.352;19.390;2022-09-27T03:59:35;15.48;;;9.58;;
50010;SDS011;35899;50.352;19.390;2022-09-27T04:02:20;39.73;;;10.23;;
50010;SDS011;35899;50.352;19.390;2022-09-27T04:05:06;33.78;;;10.50;;
50010;SDS011;35899;50.352;19.390;2022-09-27T04:07:34;34.23;;;9.58;;
50010;SDS011;35899;50.352;19.390;2022-09-27T04:10:04;33.48;;;10.10;;
50010;SDS011;35899;50.352;19.390;2022-09-27T04:12:32;26.73;;;10.15;;
50010;SDS011;35899;50.352;19.390;2022-09-27T04:14:59;15.13;;;9.68;;
50010;SDS011;35899;50.352;19.390;2022-09-27T04:17:34;11.83;;;9.00;;
50010;SDS011;35899;50.352;19.390;2022-09-27T04:20:19;12.05;;;8.60;;
50010;SDS011;35899;50.352;19.390;2022-09-27T04:22:48;10.50;;;8.53;;
50010;SDS011;35899;50.352;19.390;2022-09-27T04:25:15;13.58;;;8.63;;
50010;SDS011;35899;50.352;19.390;2022-09-27T04:27:45;11.18;;;8.08;;
50010;SDS011;35899;50.352;19.390;2022-09-27T04:30:13;12.78;;;8.45;;
50010;SDS011;35899;50.352;19.390;2022-09-27T04:32:43;12.23;;;8.60;;
50010;SDS011;35899;50.352;19.390;2022-09-27T04:35:29;13.90;;;8.20;;
50010;SDS011;35899;50.352;19.390;2022-09-27T04:38:15;12.47;;;8.55;;
50010;SDS011;35899;50.352;19.390;2022-09-27T04:40:42;11.25;;;8.05;;
50010;SDS011;35899;50.352;19.390;2022-09-27T04:43:10;14.55;;;7.83;;
50010;SDS011;35899;50.352;19.390;2022-09-27T04:45:38;15.40;;;8.93;;
50010;SDS011;35899;50.352;19.390;2022-09-27T04:48:05;12.05;;;8.60;;
50010;SDS011;35899;50.352;19.390;2022-09-27T04:50:32;12.60;;;9.25;;
50010;SDS011;35899;50.352;19.390;2022-09-27T04:53:01;12.33;;;8.48;;
50010;SDS011;35899;50.352;19.390;2022-09-27T04:55:29;13.80;;;8.80;;
50010;SDS011;35899;50.352;19.390;2022-09-27T04:57:56;16.65;;;8.08;;
50010;SDS011;35899;50.352;19.390;2022-09-27T05:00:25;19.82;;;7.97;;
50010;SDS011;35899;50.352;19.390;2022-09-27T05:02:55;39.78;;;8.23;;
50010;SDS011;35899;50.352;19.390;2022-09-27T05:05:41;72.20;;;9.15;;
50010;SDS011;35899;50.352;19.390;2022-09-27T05:08:07;52.90;;;8.78;;
50010;SDS011;35899;50.352;19.390;2022-09-27T05:10:46;36.42;;;8.75;;
50010;SDS011;35899;50.352;19.390;2022-09-27T05:13:14;15.10;;;8.48;;
50010;SDS011;35899;50.352;19.390;2022-09-27T05:15:43;9.83;;;7.72;;
50010;SDS011;35899;50.352;19.390;2022-09-27T05:18:29;12.37;;;8.28;;
50010;SDS011;35899;50.352;19.390;2022-09-27T05:21:14;14.40;;;9.50;;
50010;SDS011;35899;50.352;19.390;2022-09-27T05:23:43;14.60;;;10.60;;
50010;SDS011;35899;50.352;19.390;2022-09-27T05:26:10;16.77;;;10.55;;
50010;SDS011;35899;50.352;19.390;2022-09-27T05:28:37;15.23;;;10.28;;
50010;SDS011;35899;50.352;19.390;2022-09-27T05:31:04;14.58;;;10.93;;
50010;SDS011;35899;50.352;19.390;2022-09-27T05:33:31;15.70;;;11.43;;
50010;SDS011;35899;50.352;19.390;2022-09-27T05:36:10;17.00;;;10.75;;
50010;SDS011;35899;50.352;19.390;2022-09-27T05:38:37;15.53;;;10.60;;
50010;SDS011;35899;50.352;19.390;2022-09-27T05:41:05;16.65;;;10.13;;
50010;SDS011;35899;50.352;19.390;2022-09-27T05:43:33;18.82;;;10.15;;
50010;SDS011;35899;50.352;19.390;2022-09-27T05:46:02;15.60;;;9.30;;
50010;SDS011;35899;50.352;19.390;2022-09-27T05:48:30;13.45;;;8.93;;
50010;SDS011;35899;50.352;19.390;2022-09-27T05:51:02;11.93;;;8.38;;
50010;SDS011;35899;50.352;19.390;2022-09-27T05:53:30;11.10;;;8.48;;
50010;SDS011;35899;50.352;19.390;2022-09-27T05:56:02;12.23;;;9.00;;
50010;SDS011;35899;50.352;19.390;2022-09-27T06:01:06;12.43;;;8.53;;
50010;SDS011;35899;50.352;19.390;2022-09-27T06:03:55;11.57;;;8.23;;
50010;SDS011;35899;50.352;19.390;2022-09-27T06:06:40;13.25;;;9.45;;
50010;SDS011;35899;50.352;19.390;2022-09-27T06:09:11;13.85;;;9.18;;
50010;SDS011;35899;50.352;19.390;2022-09-27T06:11:40;12.05;;;9.20;;
50010;SDS011;35899;50.352;19.390;2022-09-27T06:14:11;11.48;;;8.60;;
50010;SDS011;35899;50.352;19.390;2022-09-27T06:16:40;12.25;;;9.48;;
50010;SDS011;35899;50.352;19.390;2022-09-27T06:19:08;11.60;;;9.20;;
50010;SDS011;35899;50.352;19.390;2022-09-27T06:21:35;11.12;;;8.43;;
50010;SDS011;35899;50.352;19.390;2022-09-27T06:24:02;11.25;;;8.88;;
50010;SDS011;35899;50.352;19.390;2022-09-27T06:26:31;12.68;;;9.68;;
50010;SDS011;35899;50.352;19.390;2022-09-27T06:29:00;10.70;;;9.58;;
50010;SDS011;35899;50.352;19.390;2022-09-27T06:31:29;12.23;;;9.08;;
50010;SDS011;35899;50.352;19.390;2022-09-27T06:34:03;11.22;;;8.53;;
50010;SDS011;35899;50.352;19.390;2022-09-27T06:36:31;10.40;;;8.38;;
50010;SDS011;35899;50.352;19.390;2022-09-27T06:38:58;12.05;;;8.83;;
50010;SDS011;35899;50.352;19.390;2022-09-27T06:44:13;10.20;;;8.08;;
50010;SDS011;35899;50.352;19.390;2022-09-27T06:46:44;10.32;;;8.15;;
50010;SDS011;35899;50.352;19.390;2022-09-27T06:49:30;16.00;;;10.30;;
50010;SDS011;35899;50.352;19.390;2022-09-27T06:51:59;13.32;;;9.18;;
50010;SDS011;35899;50.352;19.390;2022-09-27T06:54:27;11.35;;;8.30;;
50010;SDS011;35899;50.352;19.390;2022-09-27T06:56:54;10.85;;;8.30;;
50010;SDS011;35899;50.352;19.390;2022-09-27T06:59:22;11.90;;;7.97;;
50010;SDS011;35899;50.352;19.390;2022-09-27T07:02:27;9.83;;;8.60;;
50010;SDS011;35899;50.352;19.390;2022-09-27T07:05:00;9.13;;;7.83;;
50010;SDS011;35899;50.352;19.390;2022-09-27T07:07:39;9.85;;;7.70;;
50010;SDS011;35899;50.352;19.390;2022-09-27T07:10:09;11.05;;;8.45;;
50010;SDS011;35899;50.352;19.390;2022-09-27T07:12:37;11.97;;;8.28;;
50010;SDS011;35899;50.352;19.390;2022-09-27T07:15:05;9.45;;;8.45;;
50010;SDS011;35899;50.352;19.390;2022-09-27T07:17:33;10.25;;;8.20;;
50010;SDS011;35899;50.352;19.390;2022-09-27T07:20:01;11.75;;;8.65;;
50010;SDS011;35899;50.352;19.390;2022-09-27T07:22:28;11.63;;;8.13;;
50010;SDS011;35899;50.352;19.390;2022-09-27T07:24:57;10.50;;;8.45;;
50010;SDS011;35899;50.352;19.390;2022-09-27T07:27:25;11.65;;;9.08;;
50010;SDS011;35899;50.352;19.390;2022-09-27T07:29:52;12.37;;;8.43;;
50010;SDS011;35899;50.352;19.390;2022-09-27T07:32:20;12.35;;;8.78;;
50010;SDS011;35899;50.352;19.390;2022-09-27T07:34:47;10.55;;;9.35;;
50010;SDS011;35899;50.352;19.390;2022-09-27T07:37:15;12.53;;;8.70;;
50010;SDS011;35899;50.352;19.390;2022-09-27T07:39:43;11.12;;;8.95;;
50010;SDS011;35899;50.352;19.390;2022-09-27T07:42:12;11.22;;;9.20;;
50010;SDS011;35899;50.352;19.390;2022-09-27T07:44:40;11.53;;;8.58;;
50010;SDS011;35899;50.352;19.390;2022-09-27T07:47:26;11.57;;;8.88;;
50010;SDS011;35899;50.352;19.390;2022-09-27T07:50:11;11.83;;;8.73;;
50010;SDS011;35899;50.352;19.390;2022-09-27T07:52:47;10.95;;;8.50;;
50010;SDS011;35899;50.352;19.390;2022-09-27T07:55:36;9.40;;;7.85;;
50010;SDS011;35899;50.352;19.390;2022-09-27T07:58:09;12.82;;;8.08;;
50010;SDS011;35899;50.352;19.390;2022-09-27T08:00:37;10.82;;;7.70;;
50010;SDS011;35899;50.352;19.390;2022-09-27T08:03:08;9.83;;;7.90;;
50010;SDS011;35899;50.352;19.390;2022-09-27T08:05:42;9.23;;;7.65;;
50010;SDS011;35899;50.352;19.390;2022-09-27T08:08:13;9.65;;;8.00;;
50010;SDS011;35899;50.352;19.390;2022-09-27T08:10:43;8.23;;;7.22;;
50010;SDS011;35899;50.352;19.390;2022-09-27T08:13:11;9.60;;;7.78;;
50010;SDS011;35899;50.352;19.390;2022-09-27T08:15:42;10.03;;;7.28;;
50010;SDS011;35899;50.352;19.390;2022-09-27T08:18:09;9.23;;;7.10;;
50010;SDS011;35899;50.352;19.390;2022-09-27T08:20:40;9.58;;;7.42;;
50010;SDS011;35899;50.352;19.390;2022-09-27T08:23:09;10.08;;;7.42;;
50010;SDS011;35899;50.352;19.390;2022-09-27T08:25:38;11.63;;;7.37;;
50010;SDS011;35899;50.352;19.390;2022-09-27T08:28:27;11.70;;;7.45;;
50010;SDS011;35899;50.352;19.390;2022-09-27T08:30:56;12.30;;;7.03;;
50010;SDS011;35899;50.352;19.390;2022-09-27T08:33:24;10.10;;;7.00;;
50010;SDS011;35899;50.352;19.390;2022-09-27T08:35:51;9.80;;;6.42;;
50010;SDS011;35899;50.352;19.390;2022-09-27T08:38:18;9.43;;;6.87;;
50010;SDS011;35899;50.352;19.390;2022-09-27T08:43:53;8.75;;;6.35;;
50010;SDS011;35899;50.352;19.390;2022-09-27T08:58:26;3.37;;;2.55;;
50010;SDS011;35899;50.352;19.390;2022-09-27T09:01:05;3.00;;;2.40;;
50010;SDS011;35899;50.352;19.390;2022-09-27T09:04:00;2.47;;;2.00;;
50010;SDS011;35899;50.352;19.390;2022-09-27T09:06:38;2.30;;;1.72;;
50010;SDS011;35899;50.352;19.390;2022-09-27T09:12:52;1.90;;;1.60;;
50010;SDS011;35899;50.352;19.390;2022-09-27T09:15:37;2.17;;;1.80;;
50010;SDS011;35899;50.352;19.390;2022-09-27T09:24:39;2.80;;;1.30;;
50010;SDS011;35899;50.352;19.390;2022-09-27T09:27:27;1.95;;;1.17;;
50010;SDS011;35899;50.352;19.390;2022-09-27T09:35:38;1.32;;;1.22;;
50010;SDS011;35899;50.352;19.390;2022-09-27T09:38:15;1.12;;;0.90;;
50010;SDS011;35899;50.352;19.390;2022-09-27T09:40:57;1.12;;;1.00;;
50010;SDS011;35899;50.352;19.390;2022-09-27T09:46:41;2.72;;;1.10;;
50010;SDS011;35899;50.352;19.390;2022-09-27T09:49:22;1.10;;;1.00;;
50010;SDS011;35899;50.352;19.390;2022-09-27T09:52:06;1.40;;;1.00;;
50010;SDS011;35899;50.352;19.390;2022-09-27T09:54:41;1.75;;;0.90;;
50010;SDS011;35899;50.352;19.390;2022-09-27T09:57:32;1.42;;;1.00;;
50010;SDS011;35899;50.352;19.390;2022-09-27T10:02:44;0.90;;;0.60;;
50010;SDS011;35899;50.352;19.390;2022-09-27T10:05:18;1.00;;;0.68;;
50010;SDS011;35899;50.352;19.390;2022-09-27T10:07:50;1.55;;;0.88;;
50010;SDS011;35899;50.352;19.390;2022-09-27T10:10:21;0.90;;;0.80;;
50010;SDS011;35899;50.352;19.390;2022-09-27T10:13:08;2.72;;;1.02;;
50010;SDS011;35899;50.352;19.390;2022-09-27T10:15:39;0.70;;;0.62;;
50010;SDS011;35899;50.352;19.390;2022-09-27T10:18:11;0.93;;;0.82;;
50010;SDS011;35899;50.352;19.390;2022-09-27T10:20:42;0.80;;;0.80;;
50010;SDS011;35899;50.352;19.390;2022-09-27T10:23:27;1.17;;;0.70;;
50010;SDS011;35899;50.352;19.390;2022-09-27T10:26:13;0.80;;;0.70;;
50010;SDS011;35899;50.352;19.390;2022-09-27T10:28:46;0.70;;;0.70;;
50010;SDS011;35899;50.352;19.390;2022-09-27T10:31:17;2.58;;;0.70;;
50010;SDS011;35899;50.352;19.390;2022-09-27T10:33:54;0.60;;;0.55;;
50010;SDS011;35899;50.352;19.390;2022-09-27T10:36:29;0.95;;;0.68;;
50010;SDS011;35899;50.352;19.390;2022-09-27T10:39:03;0.80;;;0.70;;
50010;SDS011;35899;50.352;19.390;2022-09-27T10:41:37;0.90;;;0.60;;
50010;SDS011;35899;50.352;19.390;2022-09-27T10:44:29;1.10;;;0.80;;
50010;SDS011;35899;50.352;19.390;2022-09-27T10:47:19;0.75;;;0.50;;
50010;SDS011;35899;50.352;19.390;2022-09-27T10:50:13;0.65;;;0.60;;
50010;SDS011;35899;50.352;19.390;2022-09-27T10:52:46;1.25;;;0.70;;
50010;SDS011;35899;50.352;19.390;2022-09-27T10:55:22;1.50;;;0.80;;
50010;SDS011;35899;50.352;19.390;2022-09-27T10:57:53;1.72;;;0.90;;
50010;SDS011;35899;50.352;19.390;2022-09-27T11:00:39;1.10;;;0.80;;
50010;SDS011;35899;50.352;19.390;2022-09-27T11:03:14;1.47;;;0.80;;
50010;SDS011;35899;50.352;19.390;2022-09-27T11:05:43;1.47;;;0.70;;
50010;SDS011;35899;50.352;19.390;2022-09-27T11:13:29;0.80;;;0.70;;
50010;SDS011;35899;50.352;19.390;2022-09-27T11:22:07;2.33;;;0.80;;
50010;SDS011;35899;50.352;19.390;2022-09-27T11:51:52;3.00;;;0.90;;
50010;SDS011;35899;50.352;19.390;2022-09-27T11:57:47;1.47;;;0.95;;
50010;SDS011;35899;50.352;19.390;2022-09-27T12:09:16;1.45;;;1.10;;
50010;SDS011;35899;50.352;19.390;2022-09-27T12:11:50;1.75;;;1.25;;
50010;SDS011;35899;50.352;19.390;2022-09-27T12:19:45;0.93;;;0.80;;
50010;SDS011;35899;50.352;19.390;2022-09-27T12:22:25;1.70;;;0.82;;
50010;SDS011;35899;50.352;19.390;2022-09-27T12:25:01;2.08;;;0.90;;
50010;SDS011;35899;50.352;19.390;2022-09-27T12:27:42;2.72;;;1.02;;
50010;SDS011;35899;50.352;19.390;2022-09-27T12:30:13;1.22;;;1.00;;
50010;SDS011;35899;50.352;19.390;2022-09-27T12:41:51;1.30;;;1.10;;
50010;SDS011;35899;50.352;19.390;2022-09-27T12:44:25;1.55;;;1.20;;
50010;SDS011;35899;50.352;19.390;2022-09-27T12:52:55;5.45;;;2.00;;
50010;SDS011;35899;50.352;19.390;2022-09-27T13:09:46;5.35;;;2.40;;
50010;SDS011;35899;50.352;19.390;2022-09-27T13:14:28;8.35;;;3.05;;
50010;SDS011;35899;50.352;19.390;2022-09-27T13:25:54;5.50;;;2.90;;
50010;SDS011;35899;50.352;19.390;2022-09-27T13:35:28;4.58;;;3.05;;
50010;SDS011;35899;50.352;19.390;2022-09-27T13:37:57;4.37;;;2.58;;
50010;SDS011;35899;50.352;19.390;2022-09-27T14:00:26;2.60;;;1.32;;
50010;SDS011;35899;50.352;19.390;2022-09-27T14:11:24;4.97;;;1.45;;
50010;SDS011;35899;50.352;19.390;2022-09-27T14:14:13;3.72;;;1.52;;
50010;SDS011;35899;50.352;19.390;2022-09-27T14:16:46;2.98;;;1.20;;
50010;SDS011;35899;50.352;19.390;2022-09-27T14:19:14;3.45;;;1.50;;
50010;SDS011;35899;50.352;19.390;2022-09-27T14:21:45;3.30;;;1.22;;
50010;SDS011;35899;50.352;19.390;2022-09-27T14:24:22;2.37;;;1.37;;
50010;SDS011;35899;50.352;19.390;2022-09-27T14:38:03;3.58;;;1.70;;
50010;SDS011;35899;50.352;19.390;2022-09-27T14:40:40;3.58;;;1.62;;
50010;SDS011;35899;50.352;19.390;2022-09-27T14:43:16;3.30;;;2.33;;
50010;SDS011;35899;50.352;19.390;2022-09-27T14:45:46;3.87;;;2.58;;
50010;SDS011;35899;50.352;19.390;2022-09-27T14:48:18;9.48;;;3.33;;
50010;SDS011;35899;50.352;19.390;2022-09-27T14:50:55;3.35;;;2.22;;
50010;SDS011;35899;50.352;19.390;2022-09-27T14:53:42;4.50;;;2.08;;
50010;SDS011;35899;50.352;19.390;2022-09-27T14:56:22;5.25;;;2.10;;
50010;SDS011;35899;50.352;19.390;2022-09-27T15:01:47;18.92;;;16.70;;
50010;SDS011;35899;50.352;19.390;2022-09-27T15:04:15;9.68;;;7.83;;
50010;SDS011;35899;50.352;19.390;2022-09-27T15:06:42;4.60;;;3.17;;
50010;SDS011;35899;50.352;19.390;2022-09-27T15:09:12;4.80;;;2.90;;
50010;SDS011;35899;50.352;19.390;2022-09-27T15:11:41;7.25;;;2.77;;
50010;SDS011;35899;50.352;19.390;2022-09-27T15:14:14;5.33;;;3.45;;
50010;SDS011;35899;50.352;19.390;2022-09-27T15:16:45;6.33;;;4.10;;
50010;SDS011;35899;50.352;19.390;2022-09-27T15:21:52;10.05;;;4.08;;
50010;SDS011;35899;50.352;19.390;2022-09-27T15:29:58;10.50;;;4.95;;
50010;SDS011;35899;50.352;19.390;2022-09-27T15:32:26;8.98;;;5.05;;
50010;SDS011;35899;50.352;19.390;2022-09-27T15:34:54;7.28;;;4.35;;
50010;SDS011;35899;50.352;19.390;2022-09-27T15:45:29;6.85;;;3.85;;
50010;SDS011;35899;50.352;19.390;2022-09-27T15:50:46;8.68;;;4.45;;
50010;SDS011;35899;50.352;19.390;2022-09-27T15:56:09;13.00;;;4.70;;
50010;SDS011;35899;50.352;19.390;2022-09-27T15:58:39;9.75;;;4.83;;
50010;SDS011;35899;50.352;19.390;2022-09-27T16:01:13;11.35;;;4.47;;
50010;SDS011;35899;50.352;19.390;2022-09-27T16:03:39;10.47;;;4.90;;
50010;SDS011;35899;50.352;19.390;2022-09-27T16:06:09;10.13;;;4.30;;
50010;SDS011;35899;50.352;19.390;2022-09-27T16:08:37;9.40;;;5.10;;
50010;SDS011;35899;50.352;19.390;2022-09-27T16:11:04;10.55;;;4.85;;
50010;SDS011;35899;50.352;19.390;2022-09-27T16:13:31;12.43;;;5.00;;
50010;SDS011;35899;50.352;19.390;2022-09-27T16:16:00;13.25;;;5.30;;
50010;SDS011;35899;50.352;19.390;2022-09-27T16:18:28;10.78;;;5.70;;
50010;SDS011;35899;50.352;19.390;2022-09-27T16:20:57;13.90;;;6.87;;
50010;SDS011;35899;50.352;19.390;2022-09-27T16:23:25;12.50;;;7.80;;
50010;SDS011;35899;50.352;19.390;2022-09-27T16:25:52;13.58;;;7.85;;
50010;SDS011;35899;50.352;19.390;2022-09-27T16:28:19;13.40;;;8.53;;
50010;SDS011;35899;50.352;19.390;2022-09-27T16:30:46;11.60;;;7.28;;
50010;SDS011;35899;50.352;19.390;2022-09-27T16:33:13;11.78;;;7.15;;
50010;SDS011;35899;50.352;19.390;2022-09-27T16:35:41;12.28;;;7.60;;
50010;SDS011;35899;50.352;19.390;2022-09-27T16:38:08;11.70;;;8.05;;
50010;SDS011;35899;50.352;19.390;2022-09-27T16:40:35;12.00;;;8.10;;
50010;SDS011;35899;50.352;19.390;2022-09-27T16:43:03;13.93;;;8.68;;
50010;SDS011;35899;50.352;19.390;2022-09-27T16:45:32;31.57;;;28.27;;
50010;SDS011;35899;50.352;19.390;2022-09-27T16:48:01;16.95;;;15.18;;
50010;SDS011;35899;50.352;19.390;2022-09-27T16:50:28;16.52;;;12.85;;
50010;SDS011;35899;50.352;19.390;2022-09-27T16:53:13;11.15;;;7.95;;
50010;SDS011;35899;50.352;19.390;2022-09-27T16:55:40;11.22;;;8.40;;
50010;SDS011;35899;50.352;19.390;2022-09-27T16:58:08;10.98;;;7.95;;
50010;SDS011;35899;50.352;19.390;2022-09-27T17:00:35;11.43;;;7.87;;
50010;SDS011;35899;50.352;19.390;2022-09-27T17:03:02;19.15;;;16.45;;
50010;SDS011;35899;50.352;19.390;2022-09-27T17:05:29;15.48;;;12.20;;
50010;SDS011;35899;50.352;19.390;2022-09-27T17:07:56;14.55;;;10.43;;
50010;SDS011;35899;50.352;19.390;2022-09-27T17:10:24;15.00;;;11.30;;
50010;SDS011;35899;50.352;19.390;2022-09-27T17:12:51;12.75;;;9.68;;
50010;SDS011;35899;50.352;19.390;2022-09-27T17:15:17;14.38;;;10.28;;
50010;SDS011;35899;50.352;19.390;2022-09-27T17:17:48;17.30;;;9.43;;
50010;SDS011;35899;50.352;19.390;2022-09-27T17:20:16;11.93;;;9.13;;
50010;SDS011;35899;50.352;19.390;2022-09-27T17:22:44;15.95;;;11.30;;
50010;SDS011;35899;50.352;19.390;2022-09-27T17:25:11;19.17;;;10.93;;
50010;SDS011;35899;50.352;19.390;2022-09-27T17:27:38;17.05;;;11.88;;
50010;SDS011;35899;50.352;19.390;2022-09-27T17:30:05;14.53;;;10.55;;
50010;SDS011;35899;50.352;19.390;2022-09-27T17:32:34;17.45;;;11.50;;
50010;SDS011;35899;50.352;19.390;2022-09-27T17:35:03;18.35;;;12.13;;
50010;SDS011;35899;50.352;19.390;2022-09-27T17:37:31;15.68;;;11.15;;
50010;SDS011;35899;50.352;19.390;2022-09-27T17:39:58;19.40;;;13.38;;
50010;SDS011;35899;50.352;19.390;2022-09-27T17:42:26;20.85;;;13.93;;
50010;SDS011;35899;50.352;19.390;2022-09-27T17:44:53;17.35;;;11.75;;
50010;SDS011;35899;50.352;19.390;2022-09-27T17:47:20;24.47;;;15.00;;
50010;SDS011;35899;50.352;19.390;2022-09-27T17:50:07;19.02;;;13.65;;
50010;SDS011;35899;50.352;19.390;2022-09-27T17:52:55;20.95;;;13.80;;
50010;SDS011;35899;50.352;19.390;2022-09-27T17:55:26;23.98;;;14.70;;
50010;SDS011;35899;50.352;19.390;2022-09-27T17:57:53;20.85;;;14.47;;
50010;SDS011;35899;50.352;19.390;2022-09-27T18:00:20;20.72;;;13.62;;
50010;SDS011;35899;50.352;19.390;2022-09-27T18:02:47;17.98;;;12.73;;
50010;SDS011;35899;50.352;19.390;2022-09-27T18:05:14;21.68;;;14.35;;
50010;SDS011;35899;50.352;19.390;2022-09-27T18:07:43;23.65;;;16.10;;
50010;SDS011;35899;50.352;19.390;2022-09-27T18:10:10;32.58;;;17.42;;
50010;SDS011;35899;50.352;19.390;2022-09-27T18:12:37;55.55;;;22.32;;
50010;SDS011;35899;50.352;19.390;2022-09-27T18:15:06;43.38;;;20.20;;
50010;SDS011;35899;50.352;19.390;2022-09-27T18:17:34;39.27;;;22.13;;
50010;SDS011;35899;50.352;19.390;2022-09-27T18:20:02;42.67;;;25.52;;
50010;SDS011;35899;50.352;19.390;2022-09-27T18:22:31;61.30;;;36.83;;
50010;SDS011;35899;50.352;19.390;2022-09-27T18:24:59;64.47;;;39.45;;
50010;SDS011;35899;50.352;19.390;2022-09-27T18:27:26;56.63;;;33.67;;
50010;SDS011;35899;50.352;19.390;2022-09-27T18:29:54;56.08;;;37.17;;
50010;SDS011;35899;50.352;19.390;2022-09-27T18:32:21;38.85;;;26.52;;
50010;SDS011;35899;50.352;19.390;2022-09-27T18:34:48;40.28;;;27.75;;
50010;SDS011;35899;50.352;19.390;2022-09-27T18:37:15;56.50;;;40.33;;
50010;SDS011;35899;50.352;19.390;2022-09-27T18:39:42;42.98;;;31.05;;
50010;SDS011;35899;50.352;19.390;2022-09-27T18:42:09;40.38;;;26.77;;
50010;SDS011;35899;50.352;19.390;2022-09-27T18:44:37;35.08;;;24.63;;
50010;SDS011;35899;50.352;19.390;2022-09-27T18:47:04;28.62;;;20.00;;
50010;SDS011;35899;50.352;19.390;2022-09-27T18:49:31;33.33;;;22.58;;
50010;SDS011;35899;50.352;19.390;2022-09-27T18:51:58;32.90;;;21.20;;
50010;SDS011;35899;50.352;19.390;2022-09-27T18:54:25;28.50;;;19.77;;
50010;SDS011;35899;50.352;19.390;2022-09-27T18:56:52;30.23;;;20.27;;
50010;SDS011;35899;50.352;19.390;2022-09-27T18:59:19;31.90;;;20.85;;
50010;SDS011;35899;50.352;19.390;2022-09-27T19:01:48;30.92;;;22.00;;
50010;SDS011;35899;50.352;19.390;2022-09-27T19:04:17;28.55;;;20.00;;
50010;SDS011;35899;50.352;19.390;2022-09-27T19:06:48;32.85;;;21.48;;
50010;SDS011;35899;50.352;19.390;2022-09-27T19:09:16;31.73;;;21.87;;
50010;SDS011;35899;50.352;19.390;2022-09-27T19:11:44;31.17;;;21.37;;
50010;SDS011;35899;50.352;19.390;2022-09-27T19:16:45;29.60;;;20.92;;
50010;SDS011;35899;50.352;19.390;2022-09-27T19:19:13;27.65;;;18.75;;
50010;SDS011;35899;50.352;19.390;2022-09-27T19:21:43;26.70;;;19.65;;
50010;SDS011;35899;50.352;19.390;2022-09-27T19:24:13;28.98;;;19.62;;
50010;SDS011;35899;50.352;19.390;2022-09-27T19:26:40;26.27;;;17.92;;
50010;SDS011;35899;50.352;19.390;2022-09-27T19:29:08;27.02;;;17.35;;
50010;SDS011;35899;50.352;19.390;2022-09-27T19:31:35;27.40;;;17.48;;
50010;SDS011;35899;50.352;19.390;2022-09-27T19:34:02;28.73;;;18.77;;